sensor_id;sensor_type;location;lat;lon;timestamp;temperature;humidity
51661;DHT22;37741;49.748;8.490;2023-05-24T00:02:07;18.00;55.90
51661;DHT22;37741;49.748;8.490;2023-05-24T00:04:33;18.00;56.00
51661;DHT22;37741;49.748;8.490;2023-05-24T00:06:59;17.90;56.00
51661;DHT22;37741;49.748;8.490;2023-05-24T00:09:28;17.90;56.10
51661;DHT22;37741;49.748;8.490;2023-05-24T00:11:54;17.90;56.10
51661;DHT22;37741;49.748;8.490;2023-05-24T00:14:20;17.90;56.10
51661;DHT22;37741;49.748;8.490;2023-05-24T00:16:46;17.80;56.20
51661;DHT22;37741;49.748;8.490;2023-05-24T00:19:11;17.80;56.20
51661;DHT22;37741;49.748;8.490;2023-05-24T00:21:45;17.80;56.20
51661;DHT22;37741;49.748;8.490;2023-05-24T00:24:11;17.80;56.30
51661;DHT22;37741;49.748;8.490;2023-05-24T00:26:37;17.70;56.20
51661;DHT22;37741;49.748;8.490;2023-05-24T00:29:02;17.70;56.30
51661;DHT22;37741;49.748;8.490;2023-05-24T00:31:28;17.70;56.30
51661;DHT22;37741;49.748;8.490;2023-05-24T00:33:54;17.60;56.30
51661;DHT22;37741;49.748;8.490;2023-05-24T00:36:19;17.60;56.30
51661;DHT22;37741;49.748;8.490;2023-05-24T00:38:45;17.60;56.40
51661;DHT22;37741;49.748;8.490;2023-05-24T00:41:11;17.50;56.40
51661;DHT22;37741;49.748;8.490;2023-05-24T00:43:36;17.60;56.40
51661;DHT22;37741;49.748;8.490;2023-05-24T00:46:29;17.50;56.40
51661;DHT22;37741;49.748;8.490;2023-05-24T00:48:56;17.50;56.50
51661;DHT22;37741;49.748;8.490;2023-05-24T00:51:23;17.40;56.50
51661;DHT22;37741;49.748;8.490;2023-05-24T00:53:50;17.40;56.50
51661;DHT22;37741;49.748;8.490;2023-05-24T00:56:16;17.40;56.60
51661;DHT22;37741;49.748;8.490;2023-05-24T00:58:43;17.40;56.60
51661;DHT22;37741;49.748;8.490;2023-05-24T01:01:10;17.30;56.60
51661;DHT22;37741;49.748;8.490;2023-05-24T01:03:35;17.30;56.70
51661;DHT22;37741;49.748;8.490;2023-05-24T01:06:03;17.30;56.80
51661;DHT22;37741;49.748;8.490;2023-05-24T01:14:44;17.30;56.70
51661;DHT22;37741;49.748;8.490;2023-05-24T01:17:26;17.30;56.60
51661;DHT22;37741;49.748;8.490;2023-05-24T01:20:05;17.30;56.60
51661;DHT22;37741;49.748;8.490;2023-05-24T01:23:06;17.30;56.50
51661;DHT22;37741;49.748;8.490;2023-05-24T01:25:59;17.30;56.50
51661;DHT22;37741;49.748;8.490;2023-05-24T01:28:28;17.30;56.40
51661;DHT22;37741;49.748;8.490;2023-05-24T01:30:56;17.30;56.40
51661;DHT22;37741;49.748;8.490;2023-05-24T01:33:22;17.30;56.40
51661;DHT22;37741;49.748;8.490;2023-05-24T01:35:47;17.30;56.40
51661;DHT22;37741;49.748;8.490;2023-05-24T01:38:13;17.20;56.40
51661;DHT22;37741;49.748;8.490;2023-05-24T01:40:40;17.20;56.30
51661;DHT22;37741;49.748;8.490;2023-05-24T01:43:21;17.20;56.40
51661;DHT22;37741;49.748;8.490;2023-05-24T01:46:03;17.10;56.30
51661;DHT22;37741;49.748;8.490;2023-05-24T01:48:59;17.10;56.30
51661;DHT22;37741;49.748;8.490;2023-05-24T01:51:33;17.10;56.30
51661;DHT22;37741;49.748;8.490;2023-05-24T01:54:03;17.10;56.40
51661;DHT22;37741;49.748;8.490;2023-05-24T01:56:31;17.00;56.30
51661;DHT22;37741;49.748;8.490;2023-05-24T01:58:58;17.00;56.30
51661;DHT22;37741;49.748;8.490;2023-05-24T02:01:24;17.00;56.30
51661;DHT22;37741;49.748;8.490;2023-05-24T02:03:51;17.00;56.40
51661;DHT22;37741;49.748;8.490;2023-05-24T02:06:17;17.00;56.40
51661;DHT22;37741;49.748;8.490;2023-05-24T02:08:42;16.90;56.30
51661;DHT22;37741;49.748;8.490;2023-05-24T02:11:08;16.90;56.40
51661;DHT22;37741;49.748;8.490;2023-05-24T02:13:33;16.80;56.40
51661;DHT22;37741;49.748;8.490;2023-05-24T02:15:59;16.80;56.40
51661;DHT22;37741;49.748;8.490;2023-05-24T02:18:25;16.80;56.40
51661;DHT22;37741;49.748;8.490;2023-05-24T02:20:51;16.70;56.30
51661;DHT22;37741;49.748;8.490;2023-05-24T02:23:17;16.70;56.30
51661;DHT22;37741;49.748;8.490;2023-05-24T02:25:42;16.70;56.40
51661;DHT22;37741;49.748;8.490;2023-05-24T02:28:08;16.60;56.40
51661;DHT22;37741;49.748;8.490;2023-05-24T02:30:33;16.60;56.40
51661;DHT22;37741;49.748;8.490;2023-05-24T02:32:59;16.60;56.40
51661;DHT22;37741;49.748;8.490;2023-05-24T02:35:25;16.60;56.40
51661;DHT22;37741;49.748;8.490;2023-05-24T02:37:51;16.60;56.50
51661;DHT22;37741;49.748;8.490;2023-05-24T02:40:16;16.50;56.50
51661;DHT22;37741;49.748;8.490;2023-05-24T02:42:42;16.50;56.40
51661;DHT22;37741;49.748;8.490;2023-05-24T02:45:08;16.40;56.40
51661;DHT22;37741;49.748;8.490;2023-05-24T02:47:33;16.40;56.50
51661;DHT22;37741;49.748;8.490;2023-05-24T02:49:59;16.40;56.60
51661;DHT22;37741;49.748;8.490;2023-05-24T02:52:25;16.40;56.70
51661;DHT22;37741;49.748;8.490;2023-05-24T02:54:51;16.30;56.70
51661;DHT22;37741;49.748;8.490;2023-05-24T02:57:17;16.20;56.80
51661;DHT22;37741;49.748;8.490;2023-05-24T02:59:43;16.20;56.90
51661;DHT22;37741;49.748;8.490;2023-05-24T03:02:09;16.20;56.90
51661;DHT22;37741;49.748;8.490;2023-05-24T03:04:38;16.10;56.80
51661;DHT22;37741;49.748;8.490;2023-05-24T03:07:03;16.10;57.10
51661;DHT22;37741;49.748;8.490;2023-05-24T03:09:29;16.00;57.20
51661;DHT22;37741;49.748;8.490;2023-05-24T03:11:55;16.00;57.30
51661;DHT22;37741;49.748;8.490;2023-05-24T03:14:20;15.90;57.30
51661;DHT22;37741;49.748;8.490;2023-05-24T03:16:48;15.90;57.40
51661;DHT22;37741;49.748;8.490;2023-05-24T03:19:15;15.90;57.50
51661;DHT22;37741;49.748;8.490;2023-05-24T03:21:44;15.80;57.60
51661;DHT22;37741;49.748;8.490;2023-05-24T03:24:09;15.80;57.60
51661;DHT22;37741;49.748;8.490;2023-05-24T03:26:38;15.80;57.70
51661;DHT22;37741;49.748;8.490;2023-05-24T03:29:04;15.80;57.70
51661;DHT22;37741;49.748;8.490;2023-05-24T03:31:29;15.70;57.70
51661;DHT22;37741;49.748;8.490;2023-05-24T03:33:55;15.70;57.70
51661;DHT22;37741;49.748;8.490;2023-05-24T03:36:21;15.70;57.70
51661;DHT22;37741;49.748;8.490;2023-05-24T03:38:46;15.70;57.80
51661;DHT22;37741;49.748;8.490;2023-05-24T03:41:12;15.70;57.80
51661;DHT22;37741;49.748;8.490;2023-05-24T03:43:38;15.60;57.80
51661;DHT22;37741;49.748;8.490;2023-05-24T03:46:03;15.70;57.80
51661;DHT22;37741;49.748;8.490;2023-05-24T03:48:29;15.60;57.90
51661;DHT22;37741;49.748;8.490;2023-05-24T03:50:55;15.60;57.90
51661;DHT22;37741;49.748;8.490;2023-05-24T03:53:20;15.60;57.90
51661;DHT22;37741;49.748;8.490;2023-05-24T03:55:46;15.50;57.90
51661;DHT22;37741;49.748;8.490;2023-05-24T03:58:11;15.50;57.90
51661;DHT22;37741;49.748;8.490;2023-05-24T04:00:37;15.50;58.00
51661;DHT22;37741;49.748;8.490;2023-05-24T04:03:03;15.50;58.00
51661;DHT22;37741;49.748;8.490;2023-05-24T04:05:31;15.40;58.00
51661;DHT22;37741;49.748;8.490;2023-05-24T04:07:57;15.40;58.00
51661;DHT22;37741;49.748;8.490;2023-05-24T04:10:23;15.40;58.00
51661;DHT22;37741;49.748;8.490;2023-05-24T04:12:49;15.40;58.00
51661;DHT22;37741;49.748;8.490;2023-05-24T04:15:14;15.40;58.00
51661;DHT22;37741;49.748;8.490;2023-05-24T04:17:41;15.30;58.00
51661;DHT22;37741;49.748;8.490;2023-05-24T04:20:08;15.30;58.00
51661;DHT22;37741;49.748;8.490;2023-05-24T04:22:34;15.30;58.00
51661;DHT22;37741;49.748;8.490;2023-05-24T04:25:03;15.20;58.00
51661;DHT22;37741;49.748;8.490;2023-05-24T04:27:29;15.20;57.90
51661;DHT22;37741;49.748;8.490;2023-05-24T04:29:55;15.20;57.80
51661;DHT22;37741;49.748;8.490;2023-05-24T04:32:24;15.20;57.80
51661;DHT22;37741;49.748;8.490;2023-05-24T04:34:50;15.20;57.90
51661;DHT22;37741;49.748;8.490;2023-05-24T04:37:17;15.10;57.80
51661;DHT22;37741;49.748;8.490;2023-05-24T04:39:46;15.10;57.80
51661;DHT22;37741;49.748;8.490;2023-05-24T04:42:11;15.10;57.80
51661;DHT22;37741;49.748;8.490;2023-05-24T04:44:39;15.10;58.50
51661;DHT22;37741;49.748;8.490;2023-05-24T04:47:05;15.10;57.80
51661;DHT22;37741;49.748;8.490;2023-05-24T04:49:31;15.00;57.80
51661;DHT22;37741;49.748;8.490;2023-05-24T04:52:02;15.00;57.80
51661;DHT22;37741;49.748;8.490;2023-05-24T04:54:27;15.00;57.80
51661;DHT22;37741;49.748;8.490;2023-05-24T04:56:53;15.00;57.80
51661;DHT22;37741;49.748;8.490;2023-05-24T04:59:19;15.00;57.80
51661;DHT22;37741;49.748;8.490;2023-05-24T05:01:44;15.00;57.90
51661;DHT22;37741;49.748;8.490;2023-05-24T05:04:10;14.90;57.90
51661;DHT22;37741;49.748;8.490;2023-05-24T05:06:36;14.90;57.90
51661;DHT22;37741;49.748;8.490;2023-05-24T05:09:05;14.90;57.90
51661;DHT22;37741;49.748;8.490;2023-05-24T05:11:35;14.90;57.90
51661;DHT22;37741;49.748;8.490;2023-05-24T05:14:01;14.90;57.90
51661;DHT22;37741;49.748;8.490;2023-05-24T05:16:27;14.90;57.90
51661;DHT22;37741;49.748;8.490;2023-05-24T05:18:52;14.90;57.70
51661;DHT22;37741;49.748;8.490;2023-05-24T05:21:18;14.90;57.70
51661;DHT22;37741;49.748;8.490;2023-05-24T05:23:44;14.80;57.60
51661;DHT22;37741;49.748;8.490;2023-05-24T05:26:10;14.80;57.50
51661;DHT22;37741;49.748;8.490;2023-05-24T05:28:36;14.80;57.60
51661;DHT22;37741;49.748;8.490;2023-05-24T05:31:02;14.80;57.60
51661;DHT22;37741;49.748;8.490;2023-05-24T05:33:27;14.80;57.50
51661;DHT22;37741;49.748;8.490;2023-05-24T05:35:53;14.70;57.50
51661;DHT22;37741;49.748;8.490;2023-05-24T05:38:18;14.70;57.50
51661;DHT22;37741;49.748;8.490;2023-05-24T05:40:44;14.70;57.50
51661;DHT22;37741;49.748;8.490;2023-05-24T05:43:09;14.70;57.50
51661;DHT22;37741;49.748;8.490;2023-05-24T05:45:35;14.70;57.60
51661;DHT22;37741;49.748;8.490;2023-05-24T05:48:01;14.70;57.40
51661;DHT22;37741;49.748;8.490;2023-05-24T05:50:26;14.70;57.40
51661;DHT22;37741;49.748;8.490;2023-05-24T05:52:52;14.80;57.40
51661;DHT22;37741;49.748;8.490;2023-05-24T05:55:18;14.80;57.30
51661;DHT22;37741;49.748;8.490;2023-05-24T05:57:43;14.80;57.20
51661;DHT22;37741;49.748;8.490;2023-05-24T06:00:09;14.80;57.10
51661;DHT22;37741;49.748;8.490;2023-05-24T06:02:35;14.90;57.00
51661;DHT22;37741;49.748;8.490;2023-05-24T06:05:00;14.90;56.80
51661;DHT22;37741;49.748;8.490;2023-05-24T06:07:27;14.90;56.70
51661;DHT22;37741;49.748;8.490;2023-05-24T06:09:53;15.00;56.70
51661;DHT22;37741;49.748;8.490;2023-05-24T06:12:18;15.00;56.60
51661;DHT22;37741;49.748;8.490;2023-05-24T06:14:44;15.00;56.40
51661;DHT22;37741;49.748;8.490;2023-05-24T06:17:12;15.00;56.10
51661;DHT22;37741;49.748;8.490;2023-05-24T06:19:38;15.00;56.10
51661;DHT22;37741;49.748;8.490;2023-05-24T06:22:03;15.10;56.10
51661;DHT22;37741;49.748;8.490;2023-05-24T06:24:29;15.10;56.20
51661;DHT22;37741;49.748;8.490;2023-05-24T06:26:55;15.00;55.80
51661;DHT22;37741;49.748;8.490;2023-05-24T06:29:20;15.00;56.00
51661;DHT22;37741;49.748;8.490;2023-05-24T06:31:47;15.00;56.00
51661;DHT22;37741;49.748;8.490;2023-05-24T06:34:14;15.00;56.40
51661;DHT22;37741;49.748;8.490;2023-05-24T06:36:42;15.00;55.70
51661;DHT22;37741;49.748;8.490;2023-05-24T06:39:11;15.00;55.60
51661;DHT22;37741;49.748;8.490;2023-05-24T06:41:38;15.00;55.60
51661;DHT22;37741;49.748;8.490;2023-05-24T06:44:04;15.00;55.60
51661;DHT22;37741;49.748;8.490;2023-05-24T06:46:30;15.00;55.60
51661;DHT22;37741;49.748;8.490;2023-05-24T06:48:55;15.00;55.70
51661;DHT22;37741;49.748;8.490;2023-05-24T06:51:21;15.00;55.70
51661;DHT22;37741;49.748;8.490;2023-05-24T06:53:47;14.90;55.60
51661;DHT22;37741;49.748;8.490;2023-05-24T06:56:12;14.90;55.60
51661;DHT22;37741;49.748;8.490;2023-05-24T06:58:38;14.90;55.70
51661;DHT22;37741;49.748;8.490;2023-05-24T07:01:03;15.00;55.40
51661;DHT22;37741;49.748;8.490;2023-05-24T07:03:32;15.00;55.30
51661;DHT22;37741;49.748;8.490;2023-05-24T07:05:57;15.00;55.20
51661;DHT22;37741;49.748;8.490;2023-05-24T07:08:26;15.00;55.00
51661;DHT22;37741;49.748;8.490;2023-05-24T07:10:55;15.00;54.90
51661;DHT22;37741;49.748;8.490;2023-05-24T07:13:21;15.10;54.80
51661;DHT22;37741;49.748;8.490;2023-05-24T07:15:47;15.10;54.60
51661;DHT22;37741;49.748;8.490;2023-05-24T07:18:13;15.10;54.40
51661;DHT22;37741;49.748;8.490;2023-05-24T07:20:39;15.10;54.20
51661;DHT22;37741;49.748;8.490;2023-05-24T07:23:04;15.10;53.90
51661;DHT22;37741;49.748;8.490;2023-05-24T07:25:31;15.10;54.20
51661;DHT22;37741;49.748;8.490;2023-05-24T07:27:58;15.10;54.20
51661;DHT22;37741;49.748;8.490;2023-05-24T07:30:23;15.20;54.20
51661;DHT22;37741;49.748;8.490;2023-05-24T07:32:49;15.20;54.20
51661;DHT22;37741;49.748;8.490;2023-05-24T07:35:14;15.20;54.20
51661;DHT22;37741;49.748;8.490;2023-05-24T07:37:40;15.20;54.10
51661;DHT22;37741;49.748;8.490;2023-05-24T07:40:06;15.20;53.90
51661;DHT22;37741;49.748;8.490;2023-05-24T07:42:35;15.20;53.90
51661;DHT22;37741;49.748;8.490;2023-05-24T07:45:01;15.10;53.90
51661;DHT22;37741;49.748;8.490;2023-05-24T07:47:27;15.10;54.20
51661;DHT22;37741;49.748;8.490;2023-05-24T07:49:53;15.10;53.70
51661;DHT22;37741;49.748;8.490;2023-05-24T07:52:18;15.20;54.10
51661;DHT22;37741;49.748;8.490;2023-05-24T07:54:44;15.10;53.90
51661;DHT22;37741;49.748;8.490;2023-05-24T07:57:11;15.10;54.10
51661;DHT22;37741;49.748;8.490;2023-05-24T07:59:37;15.10;54.10
51661;DHT22;37741;49.748;8.490;2023-05-24T08:02:03;15.10;54.20
51661;DHT22;37741;49.748;8.490;2023-05-24T08:04:30;15.10;54.30
51661;DHT22;37741;49.748;8.490;2023-05-24T08:06:57;15.10;54.20
51661;DHT22;37741;49.748;8.490;2023-05-24T08:09:23;15.00;54.20
51661;DHT22;37741;49.748;8.490;2023-05-24T08:11:49;15.00;54.20
51661;DHT22;37741;49.748;8.490;2023-05-24T08:14:15;15.00;54.20
51661;DHT22;37741;49.748;8.490;2023-05-24T08:16:40;15.00;54.00
51661;DHT22;37741;49.748;8.490;2023-05-24T08:19:06;15.00;54.00
51661;DHT22;37741;49.748;8.490;2023-05-24T08:21:32;14.90;53.90
51661;DHT22;37741;49.748;8.490;2023-05-24T08:23:58;15.00;53.90
51661;DHT22;37741;49.748;8.490;2023-05-24T08:26:24;15.00;54.10
51661;DHT22;37741;49.748;8.490;2023-05-24T08:28:50;15.00;53.90
51661;DHT22;37741;49.748;8.490;2023-05-24T08:31:17;15.00;54.10
51661;DHT22;37741;49.748;8.490;2023-05-24T08:33:42;14.90;54.10
51661;DHT22;37741;49.748;8.490;2023-05-24T08:36:08;14.90;54.10
51661;DHT22;37741;49.748;8.490;2023-05-24T08:38:34;14.90;54.10
51661;DHT22;37741;49.748;8.490;2023-05-24T08:41:04;14.90;54.10
51661;DHT22;37741;49.748;8.490;2023-05-24T08:43:32;14.90;53.90
51661;DHT22;37741;49.748;8.490;2023-05-24T08:45:58;14.90;53.70
51661;DHT22;37741;49.748;8.490;2023-05-24T08:48:26;14.90;53.90
51661;DHT22;37741;49.748;8.490;2023-05-24T08:50:52;14.90;53.90
51661;DHT22;37741;49.748;8.490;2023-05-24T08:53:19;14.90;54.10
51661;DHT22;37741;49.748;8.490;2023-05-24T08:55:47;14.90;54.10
51661;DHT22;37741;49.748;8.490;2023-05-24T08:58:13;14.90;54.00
51661;DHT22;37741;49.748;8.490;2023-05-24T09:00:38;14.90;54.10
51661;DHT22;37741;49.748;8.490;2023-05-24T09:03:04;14.90;54.10
51661;DHT22;37741;49.748;8.490;2023-05-24T09:05:31;14.90;54.10
51661;DHT22;37741;49.748;8.490;2023-05-24T09:07:58;14.90;54.20
51661;DHT22;37741;49.748;8.490;2023-05-24T09:10:24;14.90;54.30
51661;DHT22;37741;49.748;8.490;2023-05-24T09:12:55;14.90;54.40
51661;DHT22;37741;49.748;8.490;2023-05-24T09:15:21;14.90;54.50
51661;DHT22;37741;49.748;8.490;2023-05-24T09:17:47;14.90;54.40
51661;DHT22;37741;49.748;8.490;2023-05-24T09:20:13;14.90;54.30
51661;DHT22;37741;49.748;8.490;2023-05-24T09:22:41;14.90;54.40
51661;DHT22;37741;49.748;8.490;2023-05-24T09:25:08;14.90;54.30
51661;DHT22;37741;49.748;8.490;2023-05-24T09:27:34;14.90;54.30
51661;DHT22;37741;49.748;8.490;2023-05-24T09:30:01;14.90;54.00
51661;DHT22;37741;49.748;8.490;2023-05-24T09:32:29;14.90;54.10
51661;DHT22;37741;49.748;8.490;2023-05-24T09:34:57;14.90;53.90
51661;DHT22;37741;49.748;8.490;2023-05-24T09:37:24;14.90;54.00
51661;DHT22;37741;49.748;8.490;2023-05-24T09:39:52;14.90;53.80
51661;DHT22;37741;49.748;8.490;2023-05-24T09:42:23;14.90;53.90
51661;DHT22;37741;49.748;8.490;2023-05-24T09:45:00;15.00;54.10
51661;DHT22;37741;49.748;8.490;2023-05-24T09:47:33;14.90;53.80
51661;DHT22;37741;49.748;8.490;2023-05-24T09:50:00;15.00;53.90
51661;DHT22;37741;49.748;8.490;2023-05-24T09:52:26;15.00;53.80
51661;DHT22;37741;49.748;8.490;2023-05-24T09:54:52;15.00;53.90
51661;DHT22;37741;49.748;8.490;2023-05-24T09:57:18;15.00;53.80
51661;DHT22;37741;49.748;8.490;2023-05-24T09:59:47;15.00;53.90
51661;DHT22;37741;49.748;8.490;2023-05-24T10:02:13;15.00;53.80
51661;DHT22;37741;49.748;8.490;2023-05-24T10:04:40;15.00;53.90
51661;DHT22;37741;49.748;8.490;2023-05-24T10:07:06;15.00;53.70
51661;DHT22;37741;49.748;8.490;2023-05-24T10:09:33;15.00;53.70
51661;DHT22;37741;49.748;8.490;2023-05-24T10:12:04;15.00;53.70
51661;DHT22;37741;49.748;8.490;2023-05-24T10:14:37;15.10;53.50
51661;DHT22;37741;49.748;8.490;2023-05-24T10:17:06;15.10;53.10
51661;DHT22;37741;49.748;8.490;2023-05-24T10:19:36;15.10;53.30
51661;DHT22;37741;49.748;8.490;2023-05-24T10:22:06;15.10;53.40
51661;DHT22;37741;49.748;8.490;2023-05-24T10:24:35;15.10;53.10
51661;DHT22;37741;49.748;8.490;2023-05-24T10:27:07;15.10;53.30
51661;DHT22;37741;49.748;8.490;2023-05-24T10:30:25;15.10;53.00
51661;DHT22;37741;49.748;8.490;2023-05-24T10:32:41;15.10;52.60
51661;DHT22;37741;49.748;8.490;2023-05-24T10:35:08;15.10;53.10
51661;DHT22;37741;49.748;8.490;2023-05-24T10:37:36;15.20;53.00
51661;DHT22;37741;49.748;8.490;2023-05-24T10:40:03;15.20;53.00
51661;DHT22;37741;49.748;8.490;2023-05-24T10:42:31;15.20;52.50
51661;DHT22;37741;49.748;8.490;2023-05-24T10:44:57;15.20;52.30
51661;DHT22;37741;49.748;8.490;2023-05-24T10:47:25;15.20;52.50
51661;DHT22;37741;49.748;8.490;2023-05-24T10:49:56;15.20;52.30
51661;DHT22;37741;49.748;8.490;2023-05-24T10:52:33;15.20;52.40
51661;DHT22;37741;49.748;8.490;2023-05-24T10:55:07;15.20;52.00
51661;DHT22;37741;49.748;8.490;2023-05-24T10:57:37;15.20;52.10
51661;DHT22;37741;49.748;8.490;2023-05-24T11:02:49;15.20;51.60
51661;DHT22;37741;49.748;8.490;2023-05-24T11:05:16;15.20;51.60
51661;DHT22;37741;49.748;8.490;2023-05-24T11:07:43;15.20;51.70
51661;DHT22;37741;49.748;8.490;2023-05-24T11:10:15;15.30;51.30
51661;DHT22;37741;49.748;8.490;2023-05-24T11:12:43;15.20;51.10
51661;DHT22;37741;49.748;8.490;2023-05-24T11:15:10;15.30;50.90
51661;DHT22;37741;49.748;8.490;2023-05-24T11:20:41;15.30;51.10
51661;DHT22;37741;49.748;8.490;2023-05-24T11:23:08;15.30;51.10
51661;DHT22;37741;49.748;8.490;2023-05-24T11:25:34;15.30;51.10
51661;DHT22;37741;49.748;8.490;2023-05-24T11:28:06;15.40;51.30
51661;DHT22;37741;49.748;8.490;2023-05-24T11:30:37;15.40;51.20
51661;DHT22;37741;49.748;8.490;2023-05-24T11:33:03;15.40;51.40
51661;DHT22;37741;49.748;8.490;2023-05-24T11:35:29;15.40;51.30
51661;DHT22;37741;49.748;8.490;2023-05-24T11:37:56;15.40;51.30
51661;DHT22;37741;49.748;8.490;2023-05-24T11:40:22;15.40;51.20
51661;DHT22;37741;49.748;8.490;2023-05-24T11:42:49;15.50;51.30
51661;DHT22;37741;49.748;8.490;2023-05-24T11:45:17;15.50;51.40
51661;DHT22;37741;49.748;8.490;2023-05-24T11:47:47;15.50;51.40
51661;DHT22;37741;49.748;8.490;2023-05-24T11:50:14;15.50;50.60
51661;DHT22;37741;49.748;8.490;2023-05-24T11:52:41;15.60;51.00
51661;DHT22;37741;49.748;8.490;2023-05-24T11:55:09;15.60;51.10
51661;DHT22;37741;49.748;8.490;2023-05-24T11:57:37;15.60;51.10
51661;DHT22;37741;49.748;8.490;2023-05-24T12:00:05;15.60;50.80
51661;DHT22;37741;49.748;8.490;2023-05-24T12:02:35;15.70;50.10
51661;DHT22;37741;49.748;8.490;2023-05-24T12:05:08;15.70;50.30
51661;DHT22;37741;49.748;8.490;2023-05-24T12:07:35;15.80;50.60
51661;DHT22;37741;49.748;8.490;2023-05-24T12:10:03;15.80;50.60
51661;DHT22;37741;49.748;8.490;2023-05-24T12:12:29;15.90;50.40
51661;DHT22;37741;49.748;8.490;2023-05-24T12:14:55;15.90;50.50
51661;DHT22;37741;49.748;8.490;2023-05-24T12:17:21;16.00;50.10
51661;DHT22;37741;49.748;8.490;2023-05-24T12:19:50;16.10;50.00
51661;DHT22;37741;49.748;8.490;2023-05-24T12:22:16;16.20;50.60
51661;DHT22;37741;49.748;8.490;2023-05-24T12:24:42;16.20;50.50
51661;DHT22;37741;49.748;8.490;2023-05-24T12:27:08;16.20;50.40
51661;DHT22;37741;49.748;8.490;2023-05-24T12:29:35;16.30;50.30
51661;DHT22;37741;49.748;8.490;2023-05-24T12:32:02;16.40;50.20
51661;DHT22;37741;49.748;8.490;2023-05-24T12:34:41;16.30;50.10
51661;DHT22;37741;49.748;8.490;2023-05-24T12:37:10;16.40;50.00
51661;DHT22;37741;49.748;8.490;2023-05-24T12:39:36;16.50;49.90
51661;DHT22;37741;49.748;8.490;2023-05-24T12:42:04;16.50;49.60
51661;DHT22;37741;49.748;8.490;2023-05-24T12:44:34;16.60;49.50
51661;DHT22;37741;49.748;8.490;2023-05-24T12:47:03;16.60;49.50
51661;DHT22;37741;49.748;8.490;2023-05-24T12:49:30;16.70;48.90
51661;DHT22;37741;49.748;8.490;2023-05-24T12:51:56;16.80;49.30
51661;DHT22;37741;49.748;8.490;2023-05-24T12:54:24;16.80;49.30
51661;DHT22;37741;49.748;8.490;2023-05-24T12:56:50;16.90;48.70
51661;DHT22;37741;49.748;8.490;2023-05-24T12:59:16;17.00;48.70
51661;DHT22;37741;49.748;8.490;2023-05-24T13:01:42;17.00;48.80
51661;DHT22;37741;49.748;8.490;2023-05-24T13:04:19;17.00;49.00
51661;DHT22;37741;49.748;8.490;2023-05-24T13:06:45;17.10;48.60
51661;DHT22;37741;49.748;8.490;2023-05-24T13:09:11;17.20;48.50
51661;DHT22;37741;49.748;8.490;2023-05-24T13:11:38;17.20;48.10
51661;DHT22;37741;49.748;8.490;2023-05-24T13:14:04;17.30;48.50
51661;DHT22;37741;49.748;8.490;2023-05-24T13:16:43;17.30;47.80
51661;DHT22;37741;49.748;8.490;2023-05-24T13:19:09;17.40;47.90
51661;DHT22;37741;49.748;8.490;2023-05-24T13:21:40;17.50;47.60
51661;DHT22;37741;49.748;8.490;2023-05-24T13:24:09;17.50;47.50
51661;DHT22;37741;49.748;8.490;2023-05-24T13:26:34;17.60;46.80
51661;DHT22;37741;49.748;8.490;2023-05-24T13:29:03;17.70;47.00
51661;DHT22;37741;49.748;8.490;2023-05-24T13:31:29;17.80;47.00
51661;DHT22;37741;49.748;8.490;2023-05-24T13:33:55;17.90;47.00
51661;DHT22;37741;49.748;8.490;2023-05-24T13:36:21;18.00;46.80
51661;DHT22;37741;49.748;8.490;2023-05-24T13:38:46;18.00;46.40
51661;DHT22;37741;49.748;8.490;2023-05-24T13:41:12;18.10;46.10
51661;DHT22;37741;49.748;8.490;2023-05-24T13:43:38;18.20;45.60
51661;DHT22;37741;49.748;8.490;2023-05-24T13:46:03;18.30;45.50
51661;DHT22;37741;49.748;8.490;2023-05-24T13:48:29;18.40;45.70
51661;DHT22;37741;49.748;8.490;2023-05-24T13:50:55;18.50;45.60
51661;DHT22;37741;49.748;8.490;2023-05-24T13:53:21;18.50;45.30
51661;DHT22;37741;49.748;8.490;2023-05-24T13:55:47;18.70;45.10
51661;DHT22;37741;49.748;8.490;2023-05-24T13:58:13;18.70;44.50
51661;DHT22;37741;49.748;8.490;2023-05-24T14:00:38;18.70;44.40
51661;DHT22;37741;49.748;8.490;2023-05-24T14:03:04;18.70;43.50
51661;DHT22;37741;49.748;8.490;2023-05-24T14:05:31;18.80;43.70
51661;DHT22;37741;49.748;8.490;2023-05-24T14:07:57;18.90;43.60
51661;DHT22;37741;49.748;8.490;2023-05-24T14:10:28;18.90;43.70
51661;DHT22;37741;49.748;8.490;2023-05-24T14:12:54;18.90;43.50
51661;DHT22;37741;49.748;8.490;2023-05-24T14:15:19;18.90;43.40
51661;DHT22;37741;49.748;8.490;2023-05-24T14:17:45;19.00;43.60
51661;DHT22;37741;49.748;8.490;2023-05-24T14:20:11;19.00;43.70
51661;DHT22;37741;49.748;8.490;2023-05-24T14:22:36;19.00;43.80
51661;DHT22;37741;49.748;8.490;2023-05-24T14:25:02;19.00;43.40
51661;DHT22;37741;49.748;8.490;2023-05-24T14:27:28;19.00;43.30
51661;DHT22;37741;49.748;8.490;2023-05-24T14:29:53;19.00;43.50
51661;DHT22;37741;49.748;8.490;2023-05-24T14:32:19;19.00;43.50
51661;DHT22;37741;49.748;8.490;2023-05-24T14:34:44;19.00;42.90
51661;DHT22;37741;49.748;8.490;2023-05-24T14:37:10;19.10;43.60
51661;DHT22;37741;49.748;8.490;2023-05-24T14:39:36;19.10;43.90
51661;DHT22;37741;49.748;8.490;2023-05-24T14:42:01;19.20;43.60
51661;DHT22;37741;49.748;8.490;2023-05-24T14:44:27;19.20;43.90
51661;DHT22;37741;49.748;8.490;2023-05-24T14:46:53;19.30;43.60
51661;DHT22;37741;49.748;8.490;2023-05-24T14:49:18;19.50;43.70
51661;DHT22;37741;49.748;8.490;2023-05-24T14:51:46;19.60;43.50
51661;DHT22;37741;49.748;8.490;2023-05-24T14:54:15;19.60;43.50
51661;DHT22;37741;49.748;8.490;2023-05-24T14:56:41;19.70;43.30
51661;DHT22;37741;49.748;8.490;2023-05-24T14:59:06;19.70;43.20
51661;DHT22;37741;49.748;8.490;2023-05-24T15:01:32;19.60;42.80
51661;DHT22;37741;49.748;8.490;2023-05-24T15:03:58;19.60;42.80
51661;DHT22;37741;49.748;8.490;2023-05-24T15:06:25;19.60;42.50
51661;DHT22;37741;49.748;8.490;2023-05-24T15:08:54;19.70;42.90
51661;DHT22;37741;49.748;8.490;2023-05-24T15:11:20;19.70;43.00
51661;DHT22;37741;49.748;8.490;2023-05-24T15:13:54;19.70;42.80
51661;DHT22;37741;49.748;8.490;2023-05-24T15:16:25;19.70;41.80
51661;DHT22;37741;49.748;8.490;2023-05-24T15:19:14;19.60;41.30
51661;DHT22;37741;49.748;8.490;2023-05-24T15:21:48;19.50;41.60
51661;DHT22;37741;49.748;8.490;2023-05-24T15:24:25;19.40;42.30
51661;DHT22;37741;49.748;8.490;2023-05-24T15:27:01;19.30;42.50
51661;DHT22;37741;49.748;8.490;2023-05-24T15:29:37;19.30;43.00
51661;DHT22;37741;49.748;8.490;2023-05-24T15:32:02;19.20;42.00
51661;DHT22;37741;49.748;8.490;2023-05-24T15:34:28;19.20;43.00
51661;DHT22;37741;49.748;8.490;2023-05-24T15:36:53;19.30;43.00
51661;DHT22;37741;49.748;8.490;2023-05-24T15:39:19;19.40;42.90
51661;DHT22;37741;49.748;8.490;2023-05-24T15:41:45;19.50;43.00
51661;DHT22;37741;49.748;8.490;2023-05-24T15:44:11;19.60;42.90